Terminal Aerodrome Forecast
Issued by NWS

Current Version | Previous Version | Graphics & Text | Print | Product List | Glossary On
Versions: 1 2 3 4 5 6 7 8 9 10 11 12 13 14 15 16 17 18 19 20 21
373
FTUS41 KPBZ 102045 AAB
TAFMGW
TAF AMD
KMGW 102045Z 1021/1118 23008G16KT 3SM -SHSN OVC025
     FM110100 25008KT 1 1/2SM -SHSN OVC012
     FM110500 25008KT 3SM -SHSN OVC015
     FM111200 28010KT P6SM -SHSN OVC025=

USA.gov is the U.S. government's official web portal to all federal, state and local government web resources and services.